createdAt,value
2022-12-12T00:02:05.325Z,98448.39
2022-12-12T00:04:37.367Z,98448.31
2022-12-12T00:07:09.766Z,98466.28
2022-12-12T00:09:41.801Z,98444.59
2022-12-12T00:12:14.073Z,98435.88
2022-12-12T00:14:46.304Z,98464.44
2022-12-12T00:17:18.323Z,98425.36
2022-12-12T00:19:50.319Z,98464.23
2022-12-12T00:22:22.773Z,98447.73
2022-12-12T00:24:54.819Z,98449.27
2022-12-12T00:27:26.843Z,98444.62
2022-12-12T00:29:58.993Z,98449.81
2022-12-12T00:32:31.248Z,98448.50
2022-12-12T00:35:03.275Z,98453.16
2022-12-12T00:37:35.058Z,98449.67
2022-12-12T00:40:07.897Z,98440.95
2022-12-12T00:42:39.896Z,98444.30
2022-12-12T00:45:12.470Z,98447.61
2022-12-12T00:47:44.762Z,98447.61
2022-12-12T00:50:16.925Z,98438.12
2022-12-12T00:52:48.884Z,98446.69
2022-12-12T00:55:21.224Z,98444.09
2022-12-12T00:57:53.501Z,98451.81
2022-12-12T01:00:25.532Z,98439.65
2022-12-12T01:03:00.805Z,98445.63
2022-12-12T01:05:32.963Z,98443.09
2022-12-12T01:08:04.862Z,98444.70
2022-12-12T01:10:37.091Z,98442.03
2022-12-12T01:13:09.137Z,98446.30
2022-12-12T01:15:41.475Z,98453.20
2022-12-12T01:18:14.409Z,98439.05
2022-12-12T01:20:47.019Z,98447.08
2022-12-12T01:23:19.298Z,98453.20
2022-12-12T01:25:51.353Z,98440.22
2022-12-12T01:28:23.403Z,98440.97
2022-12-12T01:30:55.748Z,98437.62
2022-12-12T01:33:27.811Z,98447.08
2022-12-12T01:36:01.390Z,98436.84
2022-12-12T01:38:33.434Z,98434.23
2022-12-12T01:41:05.588Z,98437.77
2022-12-12T01:43:37.932Z,98438.58
2022-12-12T01:46:19.113Z,98432.50
2022-12-12T01:48:54.331Z,98442.03
2022-12-12T01:51:28.618Z,98441.17
2022-12-12T01:54:06.165Z,98441.11
2022-12-12T01:56:40.478Z,98444.63
2022-12-12T01:59:16.357Z,98432.50
2022-12-12T02:01:48.663Z,98432.50
2022-12-12T02:04:22.737Z,98441.95
2022-12-12T02:06:55.655Z,98435.77
2022-12-12T02:09:27.993Z,98445.23
2022-12-12T02:12:00.420Z,98434.17
2022-12-12T02:14:35.605Z,98431.64
2022-12-12T02:17:26.890Z,98432.50
2022-12-12T02:20:18.048Z,98435.02
2022-12-12T02:23:11.338Z,98438.37
2022-12-12T02:25:51.384Z,98434.02
2022-12-12T02:28:59.206Z,98442.56
2022-12-12T02:31:52.172Z,98446.09
2022-12-12T02:34:46.219Z,98446.09
2022-12-12T02:37:23.826Z,98440.89
2022-12-12T02:40:13.519Z,98447.77
2022-12-12T02:42:48.325Z,98440.75
2022-12-12T02:45:32.505Z,98441.57
2022-12-12T02:48:25.022Z,98444.09
2022-12-12T02:50:58.946Z,98443.17
2022-12-12T02:53:30.991Z,98444.77
2022-12-12T02:56:11.545Z,98445.63
2022-12-12T02:58:43.632Z,98452.67
2022-12-12T03:01:18.696Z,98450.14
2022-12-12T03:04:23.617Z,98453.42
2022-12-12T03:07:24.957Z,98449.00
2022-12-12T03:10:05.614Z,98441.89
2022-12-12T03:12:43.651Z,98439.43
2022-12-12T03:15:24.463Z,98439.36
2022-12-12T03:18:15.827Z,98446.41
2022-12-12T03:21:07.694Z,98457.55
2022-12-12T03:23:42.631Z,98452.35
2022-12-12T03:26:17.759Z,98463.52
2022-12-12T03:29:05.924Z,98459.92
2022-12-12T03:31:40.699Z,98455.48
2022-12-12T03:34:19.637Z,98459.53
2022-12-12T03:36:57.785Z,98463.34
2022-12-12T03:39:38.594Z,98464.73
2022-12-12T03:42:31.709Z,98453.59
2022-12-12T03:45:13.016Z,98451.88
2022-12-12T03:47:50.948Z,98444.94
2022-12-12T03:50:25.671Z,98449.28
2022-12-12T03:53:16.399Z,98442.27
2022-12-12T03:55:54.596Z,98444.78
2022-12-12T03:58:35.830Z,98443.80
2022-12-12T04:01:11.027Z,98442.02
2022-12-12T04:03:46.143Z,98446.55
2022-12-12T04:06:34.385Z,98452.34
2022-12-12T04:09:29.491Z,98450.67
2022-12-12T04:12:31.516Z,98454.94
2022-12-12T04:15:18.270Z,98454.86
2022-12-12T04:17:53.188Z,98455.79
2022-12-12T04:20:55.040Z,98450.59
2022-12-12T04:23:39.473Z,98441.88
2022-12-12T04:26:41.284Z,98435.67
2022-12-12T04:29:22.304Z,98449.52
2022-12-12T04:32:00.355Z,98444.33
2022-12-12T04:34:47.622Z,98452.87
2022-12-12T04:37:22.945Z,98452.05
2022-12-12T04:39:57.938Z,98463.34
2022-12-12T04:42:36.172Z,98473.59
2022-12-12T04:45:15.104Z,98470.98
2022-12-12T04:47:51.060Z,98462.27
2022-12-12T04:50:26.979Z,98464.86
2022-12-12T04:53:01.570Z,98470.06
2022-12-12T04:55:36.738Z,98457.84
2022-12-12T04:58:09.344Z,98453.50
2022-12-12T05:01:00.661Z,98454.32
2022-12-12T05:03:39.691Z,98450.05
2022-12-12T05:06:15.072Z,98450.05
2022-12-12T05:08:49.710Z,98452.50
2022-12-12T05:11:22.700Z,98452.50
2022-12-12T05:13:54.686Z,98438.73
2022-12-12T05:16:35.664Z,98451.65
2022-12-12T05:19:08.029Z,98455.17
2022-12-12T05:21:41.137Z,98452.50
2022-12-12T05:24:13.296Z,98456.77
2022-12-12T05:26:45.612Z,98470.62
2022-12-12T05:29:17.662Z,98460.12
2022-12-12T05:31:49.866Z,98476.56
2022-12-12T05:34:22.332Z,98476.64
2022-12-12T05:36:54.353Z,98463.50
2022-12-12T05:39:26.664Z,98459.22
2022-12-12T05:41:58.714Z,98467.77
2022-12-12T05:44:31.255Z,98468.77
2022-12-12T05:47:03.424Z,98469.14
2022-12-12T05:49:35.440Z,98470.81
2022-12-12T05:52:07.844Z,98469.44
2022-12-12T05:54:40.696Z,98471.22
2022-12-12T05:57:12.742Z,98464.24
2022-12-12T05:59:45.409Z,98472.89
2022-12-12T06:02:17.747Z,98473.56
2022-12-12T06:04:51.794Z,98465.95
2022-12-12T06:07:24.261Z,98484.89
2022-12-12T06:09:56.215Z,98485.03
2022-12-12T06:12:28.276Z,98478.84
2022-12-12T06:15:00.546Z,98483.22
2022-12-12T06:17:33.804Z,98490.02
2022-12-12T06:20:06.986Z,98486.64
2022-12-12T06:22:39.201Z,98483.29
2022-12-12T06:25:12.344Z,98497.67
2022-12-12T06:27:44.577Z,98484.14
2022-12-12T06:30:17.105Z,98480.69
2022-12-12T06:32:49.181Z,98488.42
2022-12-12T06:35:21.201Z,98480.55
2022-12-12T06:37:53.337Z,98486.56
2022-12-12T06:40:26.014Z,98488.27
2022-12-12T06:42:58.202Z,98484.74
2022-12-12T06:45:30.843Z,98490.77
2022-12-12T06:48:03.204Z,98492.22
2022-12-12T06:50:35.817Z,98495.89
2022-12-12T06:53:07.993Z,98502.02
2022-12-12T06:55:46.947Z,98498.48
2022-12-12T06:58:19.401Z,98499.34
2022-12-12T07:00:55.030Z,98501.87
2022-12-12T07:03:27.156Z,98504.32
2022-12-12T07:05:59.405Z,98490.69
2022-12-12T07:08:31.762Z,98492.47
2022-12-12T07:11:08.932Z,98495.07
2022-12-12T07:13:41.561Z,98504.61
2022-12-12T07:16:13.999Z,98510.67
2022-12-12T07:18:47.223Z,98523.66
2022-12-12T07:21:22.118Z,98509.74
2022-12-12T07:23:55.159Z,98502.02
2022-12-12T07:26:27.600Z,98499.27
2022-12-12T07:28:59.716Z,98500.02
2022-12-12T07:31:31.710Z,98513.94
2022-12-12T07:34:03.864Z,98512.94
2022-12-12T07:36:35.776Z,98507.06
2022-12-12T07:39:07.796Z,98507.89
2022-12-12T07:41:40.853Z,98509.67
2022-12-12T07:44:13.794Z,98508.59
2022-12-12T07:46:46.097Z,98506.92
2022-12-12T07:49:18.231Z,98518.92
2022-12-12T07:51:50.560Z,98507.74
2022-12-12T07:54:22.717Z,98505.22
2022-12-12T07:56:54.915Z,98506.81
2022-12-12T07:59:27.162Z,98508.52
2022-12-12T08:01:59.459Z,98514.55
2022-12-12T08:04:31.623Z,98507.59
2022-12-12T08:07:08.261Z,98516.39
2022-12-12T08:09:38.635Z,98506.06
2022-12-12T08:12:11.076Z,98508.45
2022-12-12T08:14:43.473Z,98508.34
2022-12-12T08:17:15.415Z,98510.13
2022-12-12T08:19:47.375Z,98510.80
2022-12-12T08:22:20.102Z,98519.45
2022-12-12T08:24:52.346Z,98509.87
2022-12-12T08:27:25.909Z,98515.92
2022-12-12T08:29:58.312Z,98524.65
2022-12-12T08:32:30.402Z,98517.67
2022-12-12T08:35:03.385Z,98520.34
2022-12-12T08:37:35.585Z,98536.72
2022-12-12T08:40:08.508Z,98530.67
2022-12-12T08:42:40.420Z,98529.59
2022-12-12T08:45:12.909Z,98528.52
2022-12-12T08:47:45.583Z,98527.92
2022-12-12T08:50:17.511Z,98535.80
2022-12-12T08:52:49.587Z,98530.45
2022-12-12T08:55:22.024Z,98537.32
2022-12-12T08:57:54.570Z,98543.38
2022-12-12T09:00:26.794Z,98533.12
2022-12-12T09:02:59.077Z,98527.84
2022-12-12T09:05:31.317Z,98533.12
2022-12-12T09:08:03.700Z,98534.12
2022-12-12T09:10:36.029Z,98529.85
2022-12-12T09:13:08.474Z,98530.92
2022-12-12T09:15:40.468Z,98528.39
2022-12-12T09:18:12.756Z,98529.25
2022-12-12T09:20:46.577Z,98538.72
2022-12-12T09:23:19.553Z,98534.45
2022-12-12T09:25:52.577Z,98526.47
2022-12-12T09:28:27.559Z,98530.06
2022-12-12T09:31:00.152Z,98542.25
2022-12-12T09:33:32.790Z,98543.14
2022-12-12T09:36:07.527Z,98545.81
2022-12-12T09:38:39.089Z,98535.42
2022-12-12T09:41:16.781Z,98543.23
2022-12-12T09:44:00.550Z,98537.87
2022-12-12T09:46:38.700Z,98528.39
2022-12-12T09:49:29.007Z,98529.25
2022-12-12T09:52:03.080Z,98532.81
2022-12-12T09:54:35.863Z,98527.47
2022-12-12T09:57:11.623Z,98525.54
2022-12-12T09:59:49.779Z,98518.73
2022-12-12T10:02:34.064Z,98527.25
2022-12-12T10:05:42.213Z,98533.27
2022-12-12T10:08:32.424Z,98521.97
2022-12-12T10:11:11.900Z,98534.05
2022-12-12T10:13:44.175Z,98531.97
2022-12-12T10:16:16.869Z,98517.59
2022-12-12T10:18:51.138Z,98523.58
2022-12-12T10:21:28.956Z,98524.91
2022-12-12T10:24:04.160Z,98518.52
2022-12-12T10:26:37.202Z,98516.06
2022-12-12T10:29:18.250Z,98515.32
2022-12-12T10:32:12.422Z,98527.47
2022-12-12T10:35:20.031Z,98517.92
2022-12-12T10:38:13.989Z,98517.84
2022-12-12T10:40:54.963Z,98524.58
2022-12-12T10:43:32.915Z,98517.84
2022-12-12T10:46:19.969Z,98516.99
2022-12-12T10:48:53.836Z,98520.52
2022-12-12T10:51:28.414Z,98509.34
2022-12-12T10:54:01.335Z,98518.14
2022-12-12T10:56:33.872Z,98518.22
2022-12-12T10:59:05.937Z,98519.14
2022-12-12T11:04:16.060Z,98507.89
2022-12-12T11:06:54.086Z,98510.41
2022-12-12T11:09:28.719Z,98506.92
2022-12-12T11:12:06.634Z,98517.32
2022-12-12T11:14:41.513Z,98510.34
2022-12-12T11:17:31.967Z,98519.81
2022-12-12T11:20:07.698Z,98521.59
2022-12-12T11:22:41.224Z,98517.14
2022-12-12T11:25:25.366Z,98504.22
2022-12-12T11:28:06.184Z,98503.32
2022-12-12T11:30:43.334Z,98505.52
2022-12-12T11:33:19.272Z,98512.02
2022-12-12T11:35:56.944Z,98504.39
2022-12-12T11:38:31.977Z,98496.89
2022-12-12T11:41:07.053Z,98510.81
2022-12-12T11:43:54.586Z,98497.81
2022-12-12T11:46:32.210Z,98506.69
2022-12-12T11:49:05.817Z,98503.23
2022-12-12T11:51:40.810Z,98499.03
2022-12-12T11:54:18.614Z,98512.56
2022-12-12T11:56:57.802Z,98494.69
2022-12-12T11:59:47.960Z,98504.94
2022-12-12T12:02:54.811Z,98507.44
2022-12-12T12:05:58.296Z,98503.30
2022-12-12T12:08:52.564Z,98509.50
2022-12-12T12:11:39.473Z,98505.91
2022-12-12T12:14:37.177Z,98506.02
2022-12-12T12:17:26.887Z,98519.91
2022-12-12T12:20:28.726Z,98510.50
2022-12-12T12:23:24.493Z,98489.03
2022-12-12T12:26:23.468Z,98512.28
2022-12-12T12:29:02.077Z,98498.50
2022-12-12T12:31:42.857Z,98502.95
2022-12-12T12:34:26.223Z,98491.56
2022-12-12T12:37:07.070Z,98492.38
2022-12-12T12:40:13.924Z,98499.28
2022-12-12T12:42:54.860Z,98497.76
2022-12-12T12:45:53.649Z,98504.48
2022-12-12T12:48:28.632Z,98493.45
2022-12-12T12:51:12.509Z,98491.70
2022-12-12T12:54:05.615Z,98489.03
2022-12-12T12:56:43.742Z,98489.78
2022-12-12T12:59:20.193Z,98510.83
2022-12-12T13:01:55.730Z,98514.24
2022-12-12T13:04:33.732Z,98502.95
2022-12-12T13:07:14.498Z,98515.09
2022-12-12T13:10:05.659Z,98510.58
2022-12-12T13:12:41.125Z,98489.78
2022-12-12T13:15:42.066Z,98481.02
2022-12-12T13:18:16.948Z,98495.69
2022-12-12T13:20:55.058Z,98502.48
2022-12-12T13:23:36.125Z,98499.48
2022-12-12T13:26:11.252Z,98484.36
2022-12-12T13:28:49.115Z,98481.84
2022-12-12T13:31:26.728Z,98485.36
2022-12-12T13:34:04.657Z,98489.70
2022-12-12T13:36:40.371Z,98481.02
2022-12-12T13:39:33.082Z,98500.96
2022-12-12T13:42:08.226Z,98494.09
2022-12-12T13:44:48.675Z,98487.36
2022-12-12T13:47:26.678Z,98490.70
2022-12-12T13:54:14.611Z,98479.64
2022-12-12T13:56:48.703Z,98471.91
2022-12-12T13:59:29.404Z,98496.38
2022-12-12T14:02:20.829Z,98510.05
2022-12-12T14:05:16.984Z,98547.21
2022-12-12T14:07:55.906Z,98561.34
2022-12-12T14:10:34.142Z,98553.69
2022-12-12T14:13:24.587Z,98551.41
2022-12-12T14:16:08.608Z,98546.20
2022-12-12T14:18:52.819Z,98549.80
2022-12-12T14:21:39.998Z,98546.48
2022-12-12T14:24:39.729Z,98538.41
2022-12-12T14:27:12.748Z,98539.48
2022-12-12T14:29:46.899Z,98538.77
2022-12-12T14:32:21.859Z,98537.23
2022-12-12T14:35:21.954Z,98526.77
2022-12-12T14:38:12.102Z,98532.14
2022-12-12T14:40:49.396Z,98526.30
2022-12-12T14:43:26.853Z,98525.55
2022-12-12T14:46:01.580Z,98528.21
2022-12-12T14:48:37.819Z,98520.56
2022-12-12T14:51:13.125Z,98518.95
2022-12-12T14:53:48.475Z,98517.28
2022-12-12T14:56:24.129Z,98512.02
2022-12-12T14:59:05.016Z,98518.81
2022-12-12T15:01:46.307Z,98521.34
2022-12-12T15:04:30.439Z,98522.95
2022-12-12T15:07:11.327Z,98520.56
2022-12-12T15:09:46.451Z,98519.67
2022-12-12T15:12:21.485Z,98515.44
2022-12-12T15:14:57.235Z,98517.21
2022-12-12T15:17:32.274Z,98511.30
2022-12-12T15:20:18.604Z,98513.90
2022-12-12T15:22:58.690Z,98519.88
2022-12-12T15:25:50.990Z,98516.42
2022-12-12T15:28:25.045Z,98519.73
2022-12-12T15:30:57.650Z,98516.36
2022-12-12T15:33:29.985Z,98517.28
2022-12-12T15:36:03.335Z,98515.60
2022-12-12T15:38:35.801Z,98520.02
2022-12-12T15:41:13.592Z,98518.20
2022-12-12T15:43:45.209Z,98523.33
2022-12-12T15:46:17.663Z,98517.28
2022-12-12T15:48:51.050Z,98519.02
2022-12-12T15:51:25.468Z,98507.81
2022-12-12T15:53:57.508Z,98519.88
2022-12-12T15:56:30.525Z,98512.22
2022-12-12T15:59:17.046Z,98514.82
2022-12-12T16:01:49.184Z,98509.63
2022-12-12T16:04:26.431Z,98518.27
2022-12-12T16:07:01.333Z,98513.76
2022-12-12T16:09:36.212Z,98515.74
2022-12-12T16:12:10.564Z,98508.88
2022-12-12T16:14:44.381Z,98514.82
2022-12-12T16:17:28.600Z,98525.14
2022-12-12T16:20:03.661Z,98523.47
2022-12-12T16:22:47.847Z,98513.28
2022-12-12T16:25:25.821Z,98512.36
2022-12-12T16:28:12.538Z,98523.67
2022-12-12T16:30:47.435Z,98521.93
2022-12-12T16:33:36.868Z,98510.83
2022-12-12T16:36:11.786Z,98502.83
2022-12-12T16:38:43.973Z,98497.95
2022-12-12T16:41:18.948Z,98509.94
2022-12-12T16:43:51.102Z,98497.16
2022-12-12T16:46:26.969Z,98502.42
2022-12-12T16:49:00.523Z,98511.13
2022-12-12T16:51:35.175Z,98510.28
2022-12-12T16:54:07.221Z,98520.46
2022-12-12T16:56:39.041Z,98513.80
2022-12-12T16:59:11.016Z,98523.36
2022-12-12T17:01:43.250Z,98521.66
2022-12-12T17:04:18.322Z,98524.42
2022-12-12T17:06:51.345Z,98514.03
2022-12-12T17:09:28.264Z,98514.86
2022-12-12T17:11:57.331Z,98520.84
2022-12-12T17:14:29.324Z,98521.83
2022-12-12T17:17:02.831Z,98517.38
2022-12-12T17:19:34.862Z,98511.44
2022-12-12T17:22:06.765Z,98516.46
2022-12-12T17:24:38.683Z,98522.44
2022-12-12T17:27:12.108Z,98525.11
2022-12-12T17:29:44.177Z,98532.96
2022-12-12T17:32:20.245Z,98531.16
2022-12-12T17:34:50.457Z,98536.41
2022-12-12T17:37:23.615Z,98532.89
2022-12-12T17:39:56.062Z,98535.42
2022-12-12T17:42:29.559Z,98521.11
2022-12-12T17:45:01.918Z,98530.23
2022-12-12T17:47:34.245Z,98539.39
2022-12-12T17:50:06.722Z,98539.70
2022-12-12T17:52:39.064Z,98531.05
2022-12-12T17:55:54.300Z,98528.55
2022-12-12T17:57:46.469Z,98535.42
2022-12-12T18:00:18.583Z,98528.39
2022-12-12T18:02:50.731Z,98528.25
2022-12-12T18:05:22.711Z,98525.79
2022-12-12T18:07:54.650Z,98521.52
2022-12-12T18:10:26.587Z,98523.36
2022-12-12T18:12:58.619Z,98532.89
2022-12-12T18:15:30.631Z,98531.16
2022-12-12T18:18:02.748Z,98530.44
2022-12-12T18:20:35.603Z,98539.01
2022-12-12T18:23:07.756Z,98531.29
2022-12-12T18:25:39.840Z,98537.47
2022-12-12T18:28:13.494Z,98545.95
2022-12-12T18:30:45.482Z,98543.48
2022-12-12T18:33:17.346Z,98552.19
2022-12-12T18:35:49.460Z,98548.84
2022-12-12T18:38:21.574Z,98550.58
2022-12-12T18:40:54.525Z,98556.63
2022-12-12T18:43:28.004Z,98563.50
2022-12-12T18:46:04.718Z,98559.91
2022-12-12T18:48:39.439Z,98570.30
2022-12-12T18:51:14.548Z,98570.43
2022-12-12T18:53:47.449Z,98568.69
2022-12-12T18:56:25.697Z,98570.43
2022-12-12T18:59:00.212Z,98565.23
2022-12-12T19:01:35.290Z,98573.09
2022-12-12T19:04:13.143Z,98573.09
2022-12-12T19:06:43.373Z,98565.47
2022-12-12T19:09:18.274Z,98572.34
2022-12-12T19:11:54.249Z,98568.27
2022-12-12T19:14:25.141Z,98570.01
2022-12-12T19:16:57.798Z,98572.41
2022-12-12T19:19:30.298Z,98573.52
2022-12-12T19:22:18.597Z,98577.66
2022-12-12T19:24:36.264Z,98584.95
2022-12-12T19:27:09.546Z,98585.81
2022-12-12T19:29:41.503Z,98596.33
2022-12-12T19:32:13.696Z,98601.70
2022-12-12T19:34:46.214Z,98604.30
2022-12-12T19:37:18.189Z,98606.14
2022-12-12T19:39:51.810Z,98608.05
2022-12-12T19:42:24.106Z,98604.78
2022-12-12T19:44:55.978Z,98604.88
2022-12-12T19:47:27.914Z,98603.33
2022-12-12T19:49:59.848Z,98610.33
2022-12-12T19:52:32.825Z,98616.37
2022-12-12T19:55:05.148Z,98613.97
2022-12-12T19:57:37.084Z,98614.02
2022-12-12T20:00:10.118Z,98615.00
2022-12-12T20:02:41.703Z,98610.52
2022-12-12T20:05:13.713Z,98613.20
2022-12-12T20:07:45.724Z,98616.63
2022-12-12T20:10:17.601Z,98617.47
2022-12-12T20:12:58.213Z,98621.62
2022-12-12T20:15:23.209Z,98614.66
2022-12-12T20:17:56.498Z,98610.45
2022-12-12T20:20:28.560Z,98620.89
2022-12-12T20:23:00.524Z,98627.73
2022-12-12T20:25:32.406Z,98621.74
2022-12-12T20:28:04.421Z,98625.25
2022-12-12T20:30:36.299Z,98616.50
2022-12-12T20:33:08.219Z,98626.17
2022-12-12T20:35:40.175Z,98631.20
2022-12-12T20:38:12.130Z,98626.02
2022-12-12T20:40:44.041Z,98638.11
2022-12-12T20:43:15.868Z,98649.37
2022-12-12T20:45:47.716Z,98653.73
2022-12-12T20:48:19.604Z,98631.20
2022-12-12T20:50:51.780Z,98636.39
2022-12-12T20:53:23.798Z,98640.77
2022-12-12T20:55:55.775Z,98635.57
2022-12-12T20:58:27.825Z,98653.67
2022-12-12T21:01:00.188Z,98657.02
2022-12-12T21:03:32.395Z,98644.97
2022-12-12T21:06:05.884Z,98654.43
2022-12-12T21:08:37.816Z,98653.58
2022-12-12T21:11:10.715Z,98657.88
2022-12-12T21:13:43.066Z,98663.89
2022-12-12T21:16:23.774Z,98666.30
2022-12-12T21:18:57.942Z,98658.58
2022-12-12T21:21:30.818Z,98663.77
2022-12-12T21:24:02.751Z,98652.34
2022-12-12T21:26:35.087Z,98656.68
2022-12-12T21:29:07.217Z,98655.86
2022-12-12T21:31:49.895Z,98669.53
2022-12-12T21:34:16.502Z,98660.92
2022-12-12T21:36:53.907Z,98668.55
2022-12-12T21:39:28.603Z,98672.06
2022-12-12T21:42:00.886Z,98672.92
2022-12-12T21:44:32.769Z,98672.92
2022-12-12T21:49:53.926Z,98658.05
2022-12-12T21:52:26.015Z,98668.36
2022-12-12T21:54:57.990Z,98666.59
2022-12-12T21:57:29.925Z,98666.75
2022-12-12T22:00:01.819Z,98661.41
2022-12-12T22:02:35.622Z,98665.89
2022-12-12T22:05:07.857Z,98671.94
2022-12-12T22:07:39.770Z,98664.16
2022-12-12T22:10:11.956Z,98658.17
2022-12-12T22:12:43.943Z,98666.02
2022-12-12T22:15:17.986Z,98671.21
2022-12-12T22:17:49.989Z,98672.19
2022-12-12T22:20:21.980Z,98678.11
2022-12-12T22:22:54.410Z,98678.17
2022-12-12T22:25:26.427Z,98679.85
2022-12-12T22:27:58.536Z,98691.97
2022-12-12T22:30:30.466Z,98689.47
2022-12-12T22:33:03.757Z,98691.14
2022-12-12T22:35:35.684Z,98682.51
2022-12-12T22:38:07.782Z,98684.19
2022-12-12T22:40:39.821Z,98685.95
2022-12-12T22:43:11.725Z,98691.27
2022-12-12T22:45:44.210Z,98703.48
2022-12-12T22:48:16.260Z,98706.96
2022-12-12T22:50:48.213Z,98699.17
2022-12-12T22:53:20.632Z,98694.05
2022-12-12T22:55:52.556Z,98694.97
2022-12-12T22:58:24.520Z,98706.20
2022-12-12T23:00:56.486Z,98707.94
2022-12-12T23:03:28.981Z,98711.39
2022-12-12T23:06:09.373Z,98713.25
2022-12-12T23:08:42.878Z,98712.48
2022-12-12T23:11:16.553Z,98712.37
2022-12-12T23:13:48.461Z,98717.73
2022-12-12T23:16:24.062Z,98715.08
2022-12-12T23:18:56.403Z,98716.88
2022-12-12T23:21:28.777Z,98717.92
2022-12-12T23:24:01.006Z,98723.05
2022-12-12T23:26:35.427Z,98719.63
2022-12-12T23:29:10.664Z,98721.58
2022-12-12T23:31:42.275Z,98721.70
2022-12-12T23:34:21.351Z,98723.20
2022-12-12T23:36:54.781Z,98722.52
2022-12-12T23:39:27.847Z,98726.03
2022-12-12T23:41:59.788Z,98729.54
2022-12-12T23:44:32.464Z,98733.11
2022-12-12T23:47:04.625Z,98733.88
2022-12-12T23:49:36.748Z,98730.58
2022-12-12T23:52:08.810Z,98741.06
2022-12-12T23:54:40.723Z,98739.45
2022-12-12T23:57:12.588Z,98731.78
2022-12-12T23:59:44.492Z,98745.55
